createdAt,value
2022-10-17T00:01:55.674Z,55.53
2022-10-17T00:06:57.417Z,55.56
2022-10-17T00:11:59.755Z,55.54
2022-10-17T00:17:02.031Z,55.46
2022-10-17T00:22:03.666Z,55.42
2022-10-17T00:27:05.487Z,55.72
2022-10-17T00:32:07.167Z,55.78
2022-10-17T00:37:08.883Z,55.42
2022-10-17T00:42:13.450Z,55.65
2022-10-17T00:47:19.739Z,55.51
2022-10-17T00:52:24.950Z,55.59
2022-10-17T00:57:29.650Z,55.36
2022-10-17T01:02:31.459Z,55.62
2022-10-17T01:07:37.156Z,55.63
2022-10-17T01:13:14.677Z,55.57
2022-10-17T01:18:34.499Z,55.70
2022-10-17T01:24:06.151Z,55.65
2022-10-17T01:29:53.049Z,55.63
2022-10-17T01:35:04.273Z,55.85
2022-10-17T01:40:11.261Z,55.82
2022-10-17T01:45:19.996Z,55.82
2022-10-17T01:50:28.270Z,55.88
2022-10-17T01:55:36.779Z,55.95
2022-10-17T02:00:44.115Z,55.92
2022-10-17T02:05:46.170Z,56.14
2022-10-17T02:10:59.659Z,56.21
2022-10-17T02:16:26.133Z,56.17
2022-10-17T02:21:36.546Z,56.17
2022-10-17T02:27:00.936Z,56.29
2022-10-17T02:37:30.359Z,56.33
2022-10-17T02:42:33.918Z,56.34
2022-10-17T02:47:42.413Z,56.43
2022-10-17T02:52:55.722Z,56.56
2022-10-17T02:58:02.807Z,56.54
2022-10-17T03:03:21.019Z,56.54
2022-10-17T03:08:23.871Z,56.72
2022-10-17T03:13:25.589Z,56.53
2022-10-17T03:18:29.458Z,56.67
2022-10-17T03:23:36.855Z,56.66
2022-10-17T03:28:40.493Z,56.66
2022-10-17T03:33:43.717Z,56.64
2022-10-17T03:38:46.164Z,56.56
2022-10-17T03:43:48.638Z,56.33
2022-10-17T03:48:50.778Z,56.30
2022-10-17T03:53:52.824Z,56.42
2022-10-17T03:58:56.999Z,56.39
2022-10-17T04:03:59.022Z,56.72
2022-10-17T04:09:06.720Z,56.87
2022-10-17T04:14:18.426Z,57.07
2022-10-17T04:19:20.896Z,57.17
2022-10-17T04:24:23.121Z,57.11
2022-10-17T04:29:53.977Z,56.99
2022-10-17T04:34:58.575Z,56.92
2022-10-17T04:40:02.615Z,57.39
2022-10-17T04:45:07.595Z,56.80
2022-10-17T04:50:11.058Z,56.43
2022-10-17T04:55:14.807Z,57.09
2022-10-17T05:00:18.819Z,57.22
2022-10-17T05:05:27.752Z,57.25
2022-10-17T05:10:31.505Z,57.17
2022-10-17T05:15:34.053Z,57.10
2022-10-17T05:20:36.962Z,57.38
2022-10-17T05:25:38.739Z,57.41
2022-10-17T05:30:40.392Z,57.45
2022-10-17T05:35:43.833Z,57.18
2022-10-17T05:40:45.639Z,57.08
2022-10-17T05:45:47.331Z,57.30
2022-10-17T05:51:09.808Z,57.08
2022-10-17T05:56:15.532Z,57.17
2022-10-17T06:01:17.638Z,57.11
2022-10-17T06:06:19.714Z,57.19
2022-10-17T06:11:23.045Z,57.09
2022-10-17T06:16:25.280Z,57.15
2022-10-17T06:21:28.399Z,57.23
2022-10-17T06:26:40.161Z,57.15
2022-10-17T06:31:43.326Z,57.30
2022-10-17T06:36:45.570Z,57.42
2022-10-17T06:41:48.333Z,57.54
2022-10-17T06:46:53.699Z,57.50
2022-10-17T06:51:56.621Z,57.73
2022-10-17T06:57:07.095Z,58.04
2022-10-17T07:02:32.793Z,58.37
2022-10-17T07:07:40.027Z,58.52
2022-10-17T07:12:46.109Z,58.67
2022-10-17T07:17:51.679Z,58.76
2022-10-17T07:22:54.233Z,58.60
2022-10-17T07:27:56.147Z,58.88
2022-10-17T07:32:58.181Z,59.01
2022-10-17T07:37:59.852Z,58.89
2022-10-17T07:43:01.943Z,58.68
2022-10-17T07:48:04.867Z,58.76
2022-10-17T07:53:06.918Z,58.56
2022-10-17T07:58:09.924Z,58.45
2022-10-17T08:03:11.665Z,58.29
2022-10-17T08:08:13.415Z,58.20
2022-10-17T08:13:15.057Z,57.96
2022-10-17T08:18:17.733Z,57.62
2022-10-17T08:23:19.303Z,57.55
2022-10-17T08:28:21.321Z,57.65
2022-10-17T08:33:23.057Z,57.80
2022-10-17T08:38:27.747Z,57.62
2022-10-17T08:44:13.333Z,57.86
2022-10-17T08:49:37.282Z,57.70
2022-10-17T08:54:43.135Z,57.58
2022-10-17T08:59:50.158Z,57.49
2022-10-17T09:04:59.319Z,57.58
2022-10-17T09:10:19.511Z,57.39
2022-10-17T09:15:44.929Z,57.36
2022-10-17T09:20:58.406Z,57.38
2022-10-17T09:26:01.910Z,57.48
2022-10-17T09:31:03.400Z,57.15
2022-10-17T09:36:13.078Z,56.97
2022-10-17T09:41:51.535Z,56.76
2022-10-17T09:47:30.099Z,56.63
2022-10-17T09:52:41.036Z,56.63
2022-10-17T09:57:56.771Z,56.37
2022-10-17T10:03:22.992Z,56.62
2022-10-17T10:08:28.955Z,56.29
2022-10-17T10:13:33.259Z,56.27
2022-10-17T10:18:36.242Z,56.25
2022-10-17T10:23:40.619Z,56.39
2022-10-17T10:28:52.018Z,56.24
2022-10-17T10:33:57.518Z,56.42
2022-10-17T10:39:02.574Z,56.06
2022-10-17T10:44:06.515Z,55.85
2022-10-17T10:49:31.099Z,56.06
2022-10-17T10:59:58.076Z,55.28
2022-10-17T11:05:19.973Z,55.07
2022-10-17T11:10:44.528Z,54.60
2022-10-17T11:16:01.938Z,54.46
2022-10-17T11:21:16.083Z,54.32
2022-10-17T11:26:27.091Z,54.25
2022-10-17T11:31:39.822Z,54.19
2022-10-17T11:36:44.487Z,54.19
2022-10-17T11:41:49.005Z,54.30
2022-10-17T11:47:01.101Z,54.25
2022-10-17T11:52:37.730Z,53.89
2022-10-17T11:58:16.270Z,53.56
2022-10-17T12:03:42.747Z,53.56
2022-10-17T12:08:58.711Z,53.31
2022-10-17T12:14:05.828Z,53.29
2022-10-17T12:19:10.699Z,53.19
2022-10-17T12:24:32.164Z,52.70
2022-10-17T12:29:33.927Z,52.42
2022-10-17T12:34:36.525Z,51.93
2022-10-17T12:39:38.098Z,51.33
2022-10-17T12:44:39.708Z,51.62
2022-10-17T12:49:46.586Z,51.25
2022-10-17T12:55:12.515Z,51.42
2022-10-17T13:00:21.094Z,50.98
2022-10-17T13:05:31.615Z,51.27
2022-10-17T13:10:43.039Z,50.71
2022-10-17T13:15:47.338Z,51.03
2022-10-17T13:21:01.350Z,50.62
2022-10-17T13:26:24.780Z,50.70
2022-10-17T13:31:29.898Z,50.61
2022-10-17T13:36:33.961Z,50.68
2022-10-17T13:41:37.093Z,50.46
2022-10-17T13:46:41.124Z,50.46
2022-10-17T13:51:48.671Z,50.51
2022-10-17T13:56:56.417Z,50.34
2022-10-17T14:02:01.530Z,49.76
2022-10-17T14:07:03.265Z,49.90
2022-10-17T14:12:16.629Z,49.73
2022-10-17T14:17:26.113Z,49.10
2022-10-17T14:22:29.486Z,48.99
2022-10-17T14:27:42.139Z,49.33
2022-10-17T14:32:43.781Z,48.81
2022-10-17T14:37:49.068Z,48.67
2022-10-17T14:42:57.125Z,48.83
2022-10-17T14:48:29.203Z,48.58
2022-10-17T14:53:30.878Z,48.49
2022-10-17T14:58:33.838Z,48.54
2022-10-17T15:03:36.540Z,48.46
2022-10-17T15:08:38.894Z,48.14
2022-10-17T15:13:45.415Z,48.12
2022-10-17T15:18:47.978Z,48.29
2022-10-17T15:23:50.406Z,48.22
2022-10-17T15:28:53.180Z,48.05
2022-10-17T15:33:55.028Z,48.16
2022-10-17T15:38:59.867Z,48.27
2022-10-17T15:44:03.602Z,48.07
2022-10-17T15:49:10.125Z,47.87
2022-10-17T15:59:22.404Z,47.87
2022-10-17T16:04:26.901Z,48.01
2022-10-17T16:09:30.267Z,47.56
2022-10-17T16:14:33.171Z,47.59
2022-10-17T16:19:35.529Z,47.74
2022-10-17T16:24:37.490Z,48.00
2022-10-17T16:29:39.079Z,48.18
2022-10-17T16:34:40.822Z,48.46
2022-10-17T16:39:42.478Z,48.38
2022-10-17T16:44:44.906Z,48.50
2022-10-17T16:49:46.725Z,48.55
2022-10-17T16:54:48.396Z,48.92
2022-10-17T16:59:50.494Z,48.91
2022-10-17T17:04:52.093Z,48.68
2022-10-17T17:09:55.677Z,48.86
2022-10-17T17:14:57.555Z,48.61
2022-10-17T17:19:59.289Z,48.74
2022-10-17T17:25:00.843Z,48.90
2022-10-17T17:30:03.387Z,48.89
2022-10-17T17:35:06.885Z,49.11
2022-10-17T17:40:08.966Z,49.29
2022-10-17T17:45:11.030Z,49.67
2022-10-17T17:50:12.663Z,49.62
2022-10-17T17:55:14.381Z,49.78
2022-10-17T18:00:16.551Z,49.56
2022-10-17T18:05:18.750Z,50.19
2022-10-17T18:10:20.379Z,50.26
2022-10-17T18:15:22.044Z,50.44
2022-10-17T18:20:23.808Z,50.51
2022-10-17T18:25:25.484Z,50.22
2022-10-17T18:30:28.974Z,50.83
2022-10-17T18:35:35.310Z,50.85
2022-10-17T18:40:38.255Z,50.81
2022-10-17T18:45:41.418Z,51.23
2022-10-17T18:50:43.044Z,51.52
2022-10-17T19:00:51.846Z,51.57
2022-10-17T19:05:56.650Z,51.61
2022-10-17T19:11:10.919Z,51.39
2022-10-17T19:16:16.005Z,51.83
2022-10-17T19:21:21.783Z,51.75
2022-10-17T19:26:25.402Z,51.88
2022-10-17T19:31:28.985Z,51.90
2022-10-17T19:36:34.034Z,51.73
2022-10-17T19:41:36.529Z,52.19
2022-10-17T19:46:38.517Z,52.17
2022-10-17T19:51:41.133Z,52.18
2022-10-17T19:56:44.410Z,52.14
2022-10-17T20:01:46.311Z,52.25
2022-10-17T20:06:48.002Z,52.35
2022-10-17T20:11:49.665Z,52.42
2022-10-17T20:16:52.445Z,52.29
2022-10-17T20:21:54.245Z,52.43
2022-10-17T20:26:56.287Z,52.78
2022-10-17T20:31:58.495Z,52.61
2022-10-17T20:37:01.277Z,52.97
2022-10-17T20:42:03.008Z,53.00
2022-10-17T20:47:11.930Z,52.99
2022-10-17T20:52:18.172Z,53.31
2022-10-17T20:57:19.819Z,53.10
2022-10-17T21:02:21.582Z,53.03
2022-10-17T21:07:25.225Z,53.56
2022-10-17T21:12:36.661Z,54.05
2022-10-17T21:17:44.755Z,53.92
2022-10-17T21:22:46.504Z,54.10
2022-10-17T21:27:48.254Z,54.36
2022-10-17T21:32:54.196Z,54.20
2022-10-17T21:37:56.133Z,53.57
2022-10-17T21:42:57.967Z,53.68
2022-10-17T21:48:12.612Z,53.49
2022-10-17T21:53:21.027Z,53.57
2022-10-17T21:58:22.870Z,53.32
2022-10-17T22:03:24.762Z,53.47
2022-10-17T22:08:26.470Z,53.56
2022-10-17T22:13:28.311Z,53.79
2022-10-17T22:18:29.993Z,53.74
2022-10-17T22:23:31.921Z,53.92
2022-10-17T22:28:34.696Z,54.32
2022-10-17T22:33:38.383Z,54.04
2022-10-17T22:38:40.081Z,54.23
2022-10-17T22:43:42.059Z,54.39
2022-10-17T22:48:44.407Z,54.34
2022-10-17T22:53:46.178Z,54.52
2022-10-17T22:58:47.999Z,54.42
2022-10-17T23:03:50.026Z,54.53
2022-10-17T23:08:52.247Z,54.65
2022-10-17T23:13:53.870Z,54.83
2022-10-17T23:18:55.515Z,54.91
2022-10-17T23:23:57.361Z,54.94
2022-10-17T23:28:58.998Z,54.91
2022-10-17T23:34:00.644Z,55.10
2022-10-17T23:39:02.284Z,55.32
2022-10-17T23:44:04.425Z,55.26
2022-10-17T23:49:06.284Z,55.18
2022-10-17T23:54:08.466Z,55.30
2022-10-17T23:59:10.336Z,55.46
